sensor_id;sensor_type;location;lat;lon;timestamp;temperature;humidity
3172;DHT22;1597;51.572;6.992;2023-07-13T00:02:03;20.00;28.20
3172;DHT22;1597;51.572;6.992;2023-07-13T00:04:28;20.00;24.20
3172;DHT22;1597;51.572;6.992;2023-07-13T00:06:54;19.90;21.50
3172;DHT22;1597;51.572;6.992;2023-07-13T00:09:21;19.70;16.30
3172;DHT22;1597;51.572;6.992;2023-07-13T00:11:54;19.60;11.30
3172;DHT22;1597;51.572;6.992;2023-07-13T00:14:22;19.50;23.10
3172;DHT22;1597;51.572;6.992;2023-07-13T00:16:48;19.50;25.10
3172;DHT22;1597;51.572;6.992;2023-07-13T00:19:14;19.40;18.70
3172;DHT22;1597;51.572;6.992;2023-07-13T00:21:41;19.40;20.00
3172;DHT22;1597;51.572;6.992;2023-07-13T00:24:11;19.40;22.80
3172;DHT22;1597;51.572;6.992;2023-07-13T00:26:38;19.40;15.00
3172;DHT22;1597;51.572;6.992;2023-07-13T00:29:05;19.40;34.20
3172;DHT22;1597;51.572;6.992;2023-07-13T00:31:34;19.50;28.30
3172;DHT22;1597;51.572;6.992;2023-07-13T00:34:01;19.60;30.90
3172;DHT22;1597;51.572;6.992;2023-07-13T00:36:29;19.70;30.40
3172;DHT22;1597;51.572;6.992;2023-07-13T00:38:55;19.80;8.00
3172;DHT22;1597;51.572;6.992;2023-07-13T00:41:20;19.80;15.70
3172;DHT22;1597;51.572;6.992;2023-07-13T00:43:46;19.60;10.80
3172;DHT22;1597;51.572;6.992;2023-07-13T00:46:27;19.50;12.60
3172;DHT22;1597;51.572;6.992;2023-07-13T00:48:57;19.30;8.30
3172;DHT22;1597;51.572;6.992;2023-07-13T00:51:30;19.20;20.10
3172;DHT22;1597;51.572;6.992;2023-07-13T00:54:04;19.10;19.10
3172;DHT22;1597;51.572;6.992;2023-07-13T00:56:33;19.20;16.60
3172;DHT22;1597;51.572;6.992;2023-07-13T00:59:00;19.10;19.20
3172;DHT22;1597;51.572;6.992;2023-07-13T01:01:28;19.10;18.60
3172;DHT22;1597;51.572;6.992;2023-07-13T01:03:54;19.10;20.60
3172;DHT22;1597;51.572;6.992;2023-07-13T01:06:20;19.00;15.20
3172;DHT22;1597;51.572;6.992;2023-07-13T01:08:47;18.90;20.50
3172;DHT22;1597;51.572;6.992;2023-07-13T01:11:18;18.80;23.00
3172;DHT22;1597;51.572;6.992;2023-07-13T01:13:46;18.70;20.80
3172;DHT22;1597;51.572;6.992;2023-07-13T01:16:18;18.70;27.90
3172;DHT22;1597;51.572;6.992;2023-07-13T01:18:48;18.60;28.10
3172;DHT22;1597;51.572;6.992;2023-07-13T01:21:14;18.70;25.90
3172;DHT22;1597;51.572;6.992;2023-07-13T01:23:41;18.70;42.60
3172;DHT22;1597;51.572;6.992;2023-07-13T01:26:07;18.70;31.10
3172;DHT22;1597;51.572;6.992;2023-07-13T01:28:32;18.70;33.30
3172;DHT22;1597;51.572;6.992;2023-07-13T01:31:03;18.60;22.90
3172;DHT22;1597;51.572;6.992;2023-07-13T01:33:30;18.50;27.70
3172;DHT22;1597;51.572;6.992;2023-07-13T01:35:56;18.40;25.90
3172;DHT22;1597;51.572;6.992;2023-07-13T01:38:23;18.40;30.60
3172;DHT22;1597;51.572;6.992;2023-07-13T01:40:51;18.30;30.10
3172;DHT22;1597;51.572;6.992;2023-07-13T01:43:18;18.40;38.10
3172;DHT22;1597;51.572;6.992;2023-07-13T01:45:45;18.40;42.30
3172;DHT22;1597;51.572;6.992;2023-07-13T01:48:13;18.40;35.90
3172;DHT22;1597;51.572;6.992;2023-07-13T01:50:39;18.30;37.80
3172;DHT22;1597;51.572;6.992;2023-07-13T01:53:05;18.40;45.30
3172;DHT22;1597;51.572;6.992;2023-07-13T01:55:31;18.40;45.80
3172;DHT22;1597;51.572;6.992;2023-07-13T01:57:57;18.30;36.60
3172;DHT22;1597;51.572;6.992;2023-07-13T02:00:24;18.30;33.80
3172;DHT22;1597;51.572;6.992;2023-07-13T02:02:50;18.40;37.50
3172;DHT22;1597;51.572;6.992;2023-07-13T02:05:17;18.30;32.60
3172;DHT22;1597;51.572;6.992;2023-07-13T02:07:43;18.20;38.70
3172;DHT22;1597;51.572;6.992;2023-07-13T02:10:10;18.20;36.00
3172;DHT22;1597;51.572;6.992;2023-07-13T02:12:37;18.20;38.10
3172;DHT22;1597;51.572;6.992;2023-07-13T02:15:04;18.20;42.80
3172;DHT22;1597;51.572;6.992;2023-07-13T02:17:31;18.20;51.90
3172;DHT22;1597;51.572;6.992;2023-07-13T02:19:58;18.20;48.00
3172;DHT22;1597;51.572;6.992;2023-07-13T02:22:24;18.20;55.80
3172;DHT22;1597;51.572;6.992;2023-07-13T02:24:50;18.20;44.60
3172;DHT22;1597;51.572;6.992;2023-07-13T02:27:16;18.30;42.30
3172;DHT22;1597;51.572;6.992;2023-07-13T02:29:42;18.30;60.20
3172;DHT22;1597;51.572;6.992;2023-07-13T02:32:11;18.30;54.40
3172;DHT22;1597;51.572;6.992;2023-07-13T02:34:37;18.30;61.90
3172;DHT22;1597;51.572;6.992;2023-07-13T02:37:03;18.40;51.30
3172;DHT22;1597;51.572;6.992;2023-07-13T02:39:29;18.50;46.20
3172;DHT22;1597;51.572;6.992;2023-07-13T02:41:59;18.40;62.20
3172;DHT22;1597;51.572;6.992;2023-07-13T02:44:26;18.40;47.50
3172;DHT22;1597;51.572;6.992;2023-07-13T02:46:52;18.30;42.30
3172;DHT22;1597;51.572;6.992;2023-07-13T02:49:19;18.20;53.10
3172;DHT22;1597;51.572;6.992;2023-07-13T02:51:45;18.20;70.10
3172;DHT22;1597;51.572;6.992;2023-07-13T02:54:11;18.20;45.30
3172;DHT22;1597;51.572;6.992;2023-07-13T02:56:39;18.10;58.00
3172;DHT22;1597;51.572;6.992;2023-07-13T02:59:07;18.00;54.00
3172;DHT22;1597;51.572;6.992;2023-07-13T03:01:32;18.00;65.90
3172;DHT22;1597;51.572;6.992;2023-07-13T03:04:01;18.00;67.70
3172;DHT22;1597;51.572;6.992;2023-07-13T03:06:27;17.70;63.60
3172;DHT22;1597;51.572;6.992;2023-07-13T03:08:56;18.00;57.10
3172;DHT22;1597;51.572;6.992;2023-07-13T03:11:22;18.00;59.10
3172;DHT22;1597;51.572;6.992;2023-07-13T03:13:48;18.00;73.60
3172;DHT22;1597;51.572;6.992;2023-07-13T03:16:15;18.00;57.00
3172;DHT22;1597;51.572;6.992;2023-07-13T03:18:41;17.90;54.00
3172;DHT22;1597;51.572;6.992;2023-07-13T03:21:08;17.80;65.00
3172;DHT22;1597;51.572;6.992;2023-07-13T03:23:35;17.80;62.70
3172;DHT22;1597;51.572;6.992;2023-07-13T03:26:04;17.80;71.90
3172;DHT22;1597;51.572;6.992;2023-07-13T03:28:34;17.80;88.40
3172;DHT22;1597;51.572;6.992;2023-07-13T03:31:12;17.90;71.40
3172;DHT22;1597;51.572;6.992;2023-07-13T03:33:39;17.90;66.50
3172;DHT22;1597;51.572;6.992;2023-07-13T03:36:07;17.80;73.50
3172;DHT22;1597;51.572;6.992;2023-07-13T03:38:34;17.70;71.40
3172;DHT22;1597;51.572;6.992;2023-07-13T03:41:00;17.70;79.60
3172;DHT22;1597;51.572;6.992;2023-07-13T03:43:27;17.70;81.60
3172;DHT22;1597;51.572;6.992;2023-07-13T03:45:53;17.70;80.50
3172;DHT22;1597;51.572;6.992;2023-07-13T03:48:19;17.70;87.50
3172;DHT22;1597;51.572;6.992;2023-07-13T03:50:46;17.70;85.50
3172;DHT22;1597;51.572;6.992;2023-07-13T03:53:12;17.80;76.20
3172;DHT22;1597;51.572;6.992;2023-07-13T03:55:38;17.80;86.50
3172;DHT22;1597;51.572;6.992;2023-07-13T03:58:28;17.90;82.20
3172;DHT22;1597;51.572;6.992;2023-07-13T04:01:02;18.00;75.40
3172;DHT22;1597;51.572;6.992;2023-07-13T04:03:29;18.10;83.90
3172;DHT22;1597;51.572;6.992;2023-07-13T04:06:01;18.10;65.30
3172;DHT22;1597;51.572;6.992;2023-07-13T04:08:31;18.20;67.30
3172;DHT22;1597;51.572;6.992;2023-07-13T04:11:00;18.10;67.80
3172;DHT22;1597;51.572;6.992;2023-07-13T04:13:27;18.00;66.60
3172;DHT22;1597;51.572;6.992;2023-07-13T04:15:54;17.80;78.90
3172;DHT22;1597;51.572;6.992;2023-07-13T04:18:23;17.70;76.90
3172;DHT22;1597;51.572;6.992;2023-07-13T04:20:50;17.60;73.60
3172;DHT22;1597;51.572;6.992;2023-07-13T04:23:17;17.50;83.50
3172;DHT22;1597;51.572;6.992;2023-07-13T04:25:44;17.40;88.50
3172;DHT22;1597;51.572;6.992;2023-07-13T04:28:11;17.50;97.70
3172;DHT22;1597;51.572;6.992;2023-07-13T04:30:38;17.60;87.40
3172;DHT22;1597;51.572;6.992;2023-07-13T04:33:04;17.60;84.10
3172;DHT22;1597;51.572;6.992;2023-07-13T04:35:30;17.60;84.30
3172;DHT22;1597;51.572;6.992;2023-07-13T04:37:57;17.60;89.80
3172;DHT22;1597;51.572;6.992;2023-07-13T04:40:23;17.70;92.30
3172;DHT22;1597;51.572;6.992;2023-07-13T04:42:49;17.70;88.10
3172;DHT22;1597;51.572;6.992;2023-07-13T04:45:15;17.70;89.00
3172;DHT22;1597;51.572;6.992;2023-07-13T04:47:41;17.80;88.70
3172;DHT22;1597;51.572;6.992;2023-07-13T04:50:08;17.80;88.30
3172;DHT22;1597;51.572;6.992;2023-07-13T04:52:36;17.80;91.30
3172;DHT22;1597;51.572;6.992;2023-07-13T04:55:03;17.80;89.00
3172;DHT22;1597;51.572;6.992;2023-07-13T04:57:29;17.80;89.20
3172;DHT22;1597;51.572;6.992;2023-07-13T04:59:55;17.70;88.90
3172;DHT22;1597;51.572;6.992;2023-07-13T05:02:21;17.70;90.30
3172;DHT22;1597;51.572;6.992;2023-07-13T05:04:49;17.60;92.80
3172;DHT22;1597;51.572;6.992;2023-07-13T05:07:15;17.70;92.20
3172;DHT22;1597;51.572;6.992;2023-07-13T05:09:41;17.60;92.80
3172;DHT22;1597;51.572;6.992;2023-07-13T05:12:08;17.60;92.30
3172;DHT22;1597;51.572;6.992;2023-07-13T05:14:35;17.50;94.30
3172;DHT22;1597;51.572;6.992;2023-07-13T05:17:01;17.50;96.60
3172;DHT22;1597;51.572;6.992;2023-07-13T05:19:27;17.50;94.00
3172;DHT22;1597;51.572;6.992;2023-07-13T05:21:53;17.50;95.70
3172;DHT22;1597;51.572;6.992;2023-07-13T05:24:19;17.50;97.50
3172;DHT22;1597;51.572;6.992;2023-07-13T05:26:45;17.60;94.50
3172;DHT22;1597;51.572;6.992;2023-07-13T05:29:11;17.60;96.60
3172;DHT22;1597;51.572;6.992;2023-07-13T05:31:37;17.70;96.20
3172;DHT22;1597;51.572;6.992;2023-07-13T05:34:02;17.70;96.50
3172;DHT22;1597;51.572;6.992;2023-07-13T05:36:31;17.80;95.60
3172;DHT22;1597;51.572;6.992;2023-07-13T05:38:59;17.80;95.90
3172;DHT22;1597;51.572;6.992;2023-07-13T05:41:25;17.80;96.00
3172;DHT22;1597;51.572;6.992;2023-07-13T05:43:51;17.80;97.30
3172;DHT22;1597;51.572;6.992;2023-07-13T05:46:17;17.80;96.40
3172;DHT22;1597;51.572;6.992;2023-07-13T05:48:42;17.80;97.10
3172;DHT22;1597;51.572;6.992;2023-07-13T05:51:08;17.80;96.60
3172;DHT22;1597;51.572;6.992;2023-07-13T05:53:34;17.80;98.30
3172;DHT22;1597;51.572;6.992;2023-07-13T05:56:01;17.80;97.30
3172;DHT22;1597;51.572;6.992;2023-07-13T05:58:27;17.70;98.60
3172;DHT22;1597;51.572;6.992;2023-07-13T06:01:05;17.80;99.50
3172;DHT22;1597;51.572;6.992;2023-07-13T06:03:34;17.80;99.30
3172;DHT22;1597;51.572;6.992;2023-07-13T06:06:00;17.80;99.10
3172;DHT22;1597;51.572;6.992;2023-07-13T06:08:26;17.80;99.10
3172;DHT22;1597;51.572;6.992;2023-07-13T06:10:52;17.50;99.90
3172;DHT22;1597;51.572;6.992;2023-07-13T06:13:18;17.70;99.90
3172;DHT22;1597;51.572;6.992;2023-07-13T06:15:49;17.70;99.90
3172;DHT22;1597;51.572;6.992;2023-07-13T06:18:15;17.50;99.90
3172;DHT22;1597;51.572;6.992;2023-07-13T06:20:41;17.70;99.90
3172;DHT22;1597;51.572;6.992;2023-07-13T06:23:07;17.90;99.90
3172;DHT22;1597;51.572;6.992;2023-07-13T06:25:33;17.90;99.70
3172;DHT22;1597;51.572;6.992;2023-07-13T06:27:59;17.90;99.70
3172;DHT22;1597;51.572;6.992;2023-07-13T06:30:26;17.90;99.00
3172;DHT22;1597;51.572;6.992;2023-07-13T06:32:53;18.00;98.90
3172;DHT22;1597;51.572;6.992;2023-07-13T06:35:19;17.90;99.80
3172;DHT22;1597;51.572;6.992;2023-07-13T06:37:45;17.90;99.90
3172;DHT22;1597;51.572;6.992;2023-07-13T06:40:12;17.90;99.90
3172;DHT22;1597;51.572;6.992;2023-07-13T06:42:38;18.10;99.30
3172;DHT22;1597;51.572;6.992;2023-07-13T06:45:05;18.20;99.70
3172;DHT22;1597;51.572;6.992;2023-07-13T06:47:31;18.20;98.90
3172;DHT22;1597;51.572;6.992;2023-07-13T06:49:57;18.20;99.30
3172;DHT22;1597;51.572;6.992;2023-07-13T06:52:24;18.30;97.50
3172;DHT22;1597;51.572;6.992;2023-07-13T06:54:50;18.30;98.20
3172;DHT22;1597;51.572;6.992;2023-07-13T06:57:16;18.30;98.30
3172;DHT22;1597;51.572;6.992;2023-07-13T06:59:42;18.30;98.50
3172;DHT22;1597;51.572;6.992;2023-07-13T07:02:10;18.30;97.90
3172;DHT22;1597;51.572;6.992;2023-07-13T07:04:36;18.40;98.10
3172;DHT22;1597;51.572;6.992;2023-07-13T07:07:02;18.50;97.60
3172;DHT22;1597;51.572;6.992;2023-07-13T07:09:28;18.40;98.10
3172;DHT22;1597;51.572;6.992;2023-07-13T07:11:55;18.30;97.60
3172;DHT22;1597;51.572;6.992;2023-07-13T07:14:21;18.30;98.40
3172;DHT22;1597;51.572;6.992;2023-07-13T07:16:48;18.30;99.90
3172;DHT22;1597;51.572;6.992;2023-07-13T07:19:13;18.40;98.90
3172;DHT22;1597;51.572;6.992;2023-07-13T07:21:39;18.50;98.70
3172;DHT22;1597;51.572;6.992;2023-07-13T07:24:06;18.30;97.90
3172;DHT22;1597;51.572;6.992;2023-07-13T07:26:33;18.70;96.50
3172;DHT22;1597;51.572;6.992;2023-07-13T07:28:59;18.80;97.20
3172;DHT22;1597;51.572;6.992;2023-07-13T07:31:25;18.80;97.90
3172;DHT22;1597;51.572;6.992;2023-07-13T07:33:51;18.80;94.70
3172;DHT22;1597;51.572;6.992;2023-07-13T07:36:17;18.90;94.00
3172;DHT22;1597;51.572;6.992;2023-07-13T07:38:43;18.90;96.50
3172;DHT22;1597;51.572;6.992;2023-07-13T07:41:09;18.90;96.40
3172;DHT22;1597;51.572;6.992;2023-07-13T07:43:36;19.00;94.60
3172;DHT22;1597;51.572;6.992;2023-07-13T07:46:02;19.10;93.80
3172;DHT22;1597;51.572;6.992;2023-07-13T07:48:29;19.10;91.80
3172;DHT22;1597;51.572;6.992;2023-07-13T07:50:55;19.10;90.00
3172;DHT22;1597;51.572;6.992;2023-07-13T07:53:21;19.10;91.00
3172;DHT22;1597;51.572;6.992;2023-07-13T07:55:47;19.10;91.70
3172;DHT22;1597;51.572;6.992;2023-07-13T07:58:13;19.30;91.70
3172;DHT22;1597;51.572;6.992;2023-07-13T08:00:40;19.30;88.60
3172;DHT22;1597;51.572;6.992;2023-07-13T08:03:06;19.40;83.10
3172;DHT22;1597;51.572;6.992;2023-07-13T08:05:35;19.30;88.50
3172;DHT22;1597;51.572;6.992;2023-07-13T08:08:03;19.40;83.10
3172;DHT22;1597;51.572;6.992;2023-07-13T08:10:29;19.40;82.30
3172;DHT22;1597;51.572;6.992;2023-07-13T08:12:55;19.40;83.60
3172;DHT22;1597;51.572;6.992;2023-07-13T08:15:21;19.30;82.20
3172;DHT22;1597;51.572;6.992;2023-07-13T08:17:48;19.40;86.10
3172;DHT22;1597;51.572;6.992;2023-07-13T08:20:16;19.40;83.20
3172;DHT22;1597;51.572;6.992;2023-07-13T08:22:43;19.40;84.20
3172;DHT22;1597;51.572;6.992;2023-07-13T08:25:09;19.50;81.20
3172;DHT22;1597;51.572;6.992;2023-07-13T08:27:35;19.50;77.20
3172;DHT22;1597;51.572;6.992;2023-07-13T08:30:01;19.50;77.50
3172;DHT22;1597;51.572;6.992;2023-07-13T08:32:27;19.70;77.40
3172;DHT22;1597;51.572;6.992;2023-07-13T08:34:53;19.70;77.80
3172;DHT22;1597;51.572;6.992;2023-07-13T08:37:19;19.80;72.50
3172;DHT22;1597;51.572;6.992;2023-07-13T08:39:45;19.90;65.60
3172;DHT22;1597;51.572;6.992;2023-07-13T08:47:50;20.10;67.20
3172;DHT22;1597;51.572;6.992;2023-07-13T08:50:23;20.30;58.90
3172;DHT22;1597;51.572;6.992;2023-07-13T08:52:53;20.30;56.20
3172;DHT22;1597;51.572;6.992;2023-07-13T08:55:30;20.10;56.30
3172;DHT22;1597;51.572;6.992;2023-07-13T08:58:11;20.10;54.30
3172;DHT22;1597;51.572;6.992;2023-07-13T09:04:23;20.20;57.90
3172;DHT22;1597;51.572;6.992;2023-07-13T09:07:01;20.30;52.30
3172;DHT22;1597;51.572;6.992;2023-07-13T09:15:29;20.40;46.20
3172;DHT22;1597;51.572;6.992;2023-07-13T09:18:06;20.50;51.00
3172;DHT22;1597;51.572;6.992;2023-07-13T09:21:20;20.60;54.10
3172;DHT22;1597;51.572;6.992;2023-07-13T09:23:41;20.50;58.60
3172;DHT22;1597;51.572;6.992;2023-07-13T09:26:17;20.50;46.00
3172;DHT22;1597;51.572;6.992;2023-07-13T09:29:11;20.40;52.30
3172;DHT22;1597;51.572;6.992;2023-07-13T09:31:49;20.50;48.30
3172;DHT22;1597;51.572;6.992;2023-07-13T09:34:17;20.40;46.40
3172;DHT22;1597;51.572;6.992;2023-07-13T09:36:44;20.50;51.60
3172;DHT22;1597;51.572;6.992;2023-07-13T09:39:15;20.50;49.20
3172;DHT22;1597;51.572;6.992;2023-07-13T09:47:20;20.60;56.00
3172;DHT22;1597;51.572;6.992;2023-07-13T09:49:58;20.60;51.00
3172;DHT22;1597;51.572;6.992;2023-07-13T09:52:26;20.80;45.60
3172;DHT22;1597;51.572;6.992;2023-07-13T09:54:54;21.00;46.80
3172;DHT22;1597;51.572;6.992;2023-07-13T09:57:27;21.20;26.80
3172;DHT22;1597;51.572;6.992;2023-07-13T09:59:54;21.30;28.20
3172;DHT22;1597;51.572;6.992;2023-07-13T10:02:33;21.40;29.10
3172;DHT22;1597;51.572;6.992;2023-07-13T10:05:14;21.40;24.20
3172;DHT22;1597;51.572;6.992;2023-07-13T10:07:45;21.30;26.80
3172;DHT22;1597;51.572;6.992;2023-07-13T10:10:22;21.00;31.20
3172;DHT22;1597;51.572;6.992;2023-07-13T10:12:49;20.80;46.00
3172;DHT22;1597;51.572;6.992;2023-07-13T10:15:20;20.60;55.50
3172;DHT22;1597;51.572;6.992;2023-07-13T10:17:49;20.50;56.30
3172;DHT22;1597;51.572;6.992;2023-07-13T10:20:17;20.40;55.00
3172;DHT22;1597;51.572;6.992;2023-07-13T10:22:54;20.40;60.60
3172;DHT22;1597;51.572;6.992;2023-07-13T10:25:30;20.40;59.10
3172;DHT22;1597;51.572;6.992;2023-07-13T10:28:29;20.50;61.20
3172;DHT22;1597;51.572;6.992;2023-07-13T10:30:59;20.70;52.10
3172;DHT22;1597;51.572;6.992;2023-07-13T10:33:27;20.80;48.30
3172;DHT22;1597;51.572;6.992;2023-07-13T10:36:05;20.90;44.00
3172;DHT22;1597;51.572;6.992;2023-07-13T10:38:56;20.90;37.20
3172;DHT22;1597;51.572;6.992;2023-07-13T10:41:24;20.90;22.80
3172;DHT22;1597;51.572;6.992;2023-07-13T10:43:53;20.80;25.30
3172;DHT22;1597;51.572;6.992;2023-07-13T10:46:24;20.90;17.50
3172;DHT22;1597;51.572;6.992;2023-07-13T10:48:59;20.90;20.60
3172;DHT22;1597;51.572;6.992;2023-07-13T10:51:28;21.10;23.20
3172;DHT22;1597;51.572;6.992;2023-07-13T10:54:15;21.20;23.20
3172;DHT22;1597;51.572;6.992;2023-07-13T10:56:43;21.50;13.60
3172;DHT22;1597;51.572;6.992;2023-07-13T10:59:27;21.60;9.90
3172;DHT22;1597;51.572;6.992;2023-07-13T11:04:43;21.90;4.80
3172;DHT22;1597;51.572;6.992;2023-07-13T11:07:23;22.00;6.50
3172;DHT22;1597;51.572;6.992;2023-07-13T11:09:53;22.10;1.00
3172;DHT22;1597;51.572;6.992;2023-07-13T11:17:53;22.30;1.00
3172;DHT22;1597;51.572;6.992;2023-07-13T11:20:37;22.50;1.00
3172;DHT22;1597;51.572;6.992;2023-07-13T11:23:09;22.50;1.00
3172;DHT22;1597;51.572;6.992;2023-07-13T11:25:38;22.30;1.00
3172;DHT22;1597;51.572;6.992;2023-07-13T11:28:13;22.10;1.00
3172;DHT22;1597;51.572;6.992;2023-07-13T11:30:49;21.90;1.00
3172;DHT22;1597;51.572;6.992;2023-07-13T11:33:51;21.80;1.00
3172;DHT22;1597;51.572;6.992;2023-07-13T11:36:21;21.90;1.00
3172;DHT22;1597;51.572;6.992;2023-07-13T11:38:57;22.00;1.00
3172;DHT22;1597;51.572;6.992;2023-07-13T11:41:45;22.10;1.00
3172;DHT22;1597;51.572;6.992;2023-07-13T11:44:22;22.30;1.00
3172;DHT22;1597;51.572;6.992;2023-07-13T11:46:57;22.40;1.00
3172;DHT22;1597;51.572;6.992;2023-07-13T11:49:28;22.50;1.00
3172;DHT22;1597;51.572;6.992;2023-07-13T11:51:57;22.60;1.00
3172;DHT22;1597;51.572;6.992;2023-07-13T11:54:33;22.70;1.00
3172;DHT22;1597;51.572;6.992;2023-07-13T12:00:09;23.00;1.00
3172;DHT22;1597;51.572;6.992;2023-07-13T12:02:40;23.10;1.00
3172;DHT22;1597;51.572;6.992;2023-07-13T12:05:15;23.10;1.00
3172;DHT22;1597;51.572;6.992;2023-07-13T12:07:43;23.20;1.00
3172;DHT22;1597;51.572;6.992;2023-07-13T12:10:29;23.10;1.00
3172;DHT22;1597;51.572;6.992;2023-07-13T12:18:18;22.70;1.00
3172;DHT22;1597;51.572;6.992;2023-07-13T12:20:48;22.70;1.00
3172;DHT22;1597;51.572;6.992;2023-07-13T12:23:32;22.80;1.00
3172;DHT22;1597;51.572;6.992;2023-07-13T12:26:02;23.00;1.00
3172;DHT22;1597;51.572;6.992;2023-07-13T12:28:38;23.10;1.00
3172;DHT22;1597;51.572;6.992;2023-07-13T12:34:07;23.50;1.00
3172;DHT22;1597;51.572;6.992;2023-07-13T12:36:45;23.50;1.00
3172;DHT22;1597;51.572;6.992;2023-07-13T12:39:35;23.20;1.00
3172;DHT22;1597;51.572;6.992;2023-07-13T12:42:22;23.30;1.00
3172;DHT22;1597;51.572;6.992;2023-07-13T12:44:59;23.20;1.00
3172;DHT22;1597;51.572;6.992;2023-07-13T12:47:28;23.30;1.00
3172;DHT22;1597;51.572;6.992;2023-07-13T12:49:59;23.20;1.00
3172;DHT22;1597;51.572;6.992;2023-07-13T12:52:31;23.30;1.00
3172;DHT22;1597;51.572;6.992;2023-07-13T12:55:07;23.30;1.00
3172;DHT22;1597;51.572;6.992;2023-07-13T12:57:41;23.20;1.00
3172;DHT22;1597;51.572;6.992;2023-07-13T13:00:25;23.20;1.00
3172;DHT22;1597;51.572;6.992;2023-07-13T13:02:55;23.10;1.00
3172;DHT22;1597;51.572;6.992;2023-07-13T13:05:25;22.80;1.00
3172;DHT22;1597;51.572;6.992;2023-07-13T13:07:51;21.80;1.00
3172;DHT22;1597;51.572;6.992;2023-07-13T13:10:18;21.10;9.90
3172;DHT22;1597;51.572;6.992;2023-07-13T13:12:44;20.60;53.80
3172;DHT22;1597;51.572;6.992;2023-07-13T13:15:11;20.20;72.50
3172;DHT22;1597;51.572;6.992;2023-07-13T13:17:38;19.80;93.10
3172;DHT22;1597;51.572;6.992;2023-07-13T13:20:19;19.40;99.90
3172;DHT22;1597;51.572;6.992;2023-07-13T13:22:46;19.10;99.90
3172;DHT22;1597;51.572;6.992;2023-07-13T13:25:14;19.00;99.90
3172;DHT22;1597;51.572;6.992;2023-07-13T13:27:44;18.90;99.90
3172;DHT22;1597;51.572;6.992;2023-07-13T13:30:15;18.90;99.90
3172;DHT22;1597;51.572;6.992;2023-07-13T13:32:45;19.10;99.90
3172;DHT22;1597;51.572;6.992;2023-07-13T13:35:17;19.10;99.90
3172;DHT22;1597;51.572;6.992;2023-07-13T13:37:46;19.20;99.90
3172;DHT22;1597;51.572;6.992;2023-07-13T13:40:21;19.10;99.90
3172;DHT22;1597;51.572;6.992;2023-07-13T13:42:51;19.10;99.90
3172;DHT22;1597;51.572;6.992;2023-07-13T13:45:18;19.00;99.90
3172;DHT22;1597;51.572;6.992;2023-07-13T13:47:46;19.00;99.90
3172;DHT22;1597;51.572;6.992;2023-07-13T13:50:19;19.10;99.90
3172;DHT22;1597;51.572;6.992;2023-07-13T13:52:48;19.30;98.50
3172;DHT22;1597;51.572;6.992;2023-07-13T13:55:21;19.40;97.70
3172;DHT22;1597;51.572;6.992;2023-07-13T13:57:49;19.60;95.40
3172;DHT22;1597;51.572;6.992;2023-07-13T14:00:17;19.60;92.00
3172;DHT22;1597;51.572;6.992;2023-07-13T14:02:47;19.60;94.00
3172;DHT22;1597;51.572;6.992;2023-07-13T14:05:21;19.70;92.00
3172;DHT22;1597;51.572;6.992;2023-07-13T14:07:52;19.70;94.30
3172;DHT22;1597;51.572;6.992;2023-07-13T14:10:19;19.60;96.50
3172;DHT22;1597;51.572;6.992;2023-07-13T14:12:48;19.70;96.80
3172;DHT22;1597;51.572;6.992;2023-07-13T14:15:28;19.70;98.20
3172;DHT22;1597;51.572;6.992;2023-07-13T14:18:15;19.80;97.70
3172;DHT22;1597;51.572;6.992;2023-07-13T14:20:45;19.80;96.80
3172;DHT22;1597;51.572;6.992;2023-07-13T14:23:15;19.80;97.00
3172;DHT22;1597;51.572;6.992;2023-07-13T14:25:45;19.70;94.30
3172;DHT22;1597;51.572;6.992;2023-07-13T14:28:25;19.20;99.90
3172;DHT22;1597;51.572;6.992;2023-07-13T14:30:53;19.20;99.90
3172;DHT22;1597;51.572;6.992;2023-07-13T14:33:20;19.20;99.90
3172;DHT22;1597;51.572;6.992;2023-07-13T14:35:46;19.20;99.90
3172;DHT22;1597;51.572;6.992;2023-07-13T14:38:16;19.40;99.90
3172;DHT22;1597;51.572;6.992;2023-07-13T14:40:43;19.50;99.90
3172;DHT22;1597;51.572;6.992;2023-07-13T14:43:15;19.70;99.90
3172;DHT22;1597;51.572;6.992;2023-07-13T14:45:46;19.80;99.90
3172;DHT22;1597;51.572;6.992;2023-07-13T14:48:16;20.00;98.80
3172;DHT22;1597;51.572;6.992;2023-07-13T14:50:44;20.10;94.40
3172;DHT22;1597;51.572;6.992;2023-07-13T14:53:12;20.20;94.50
3172;DHT22;1597;51.572;6.992;2023-07-13T14:55:40;20.30;91.10
3172;DHT22;1597;51.572;6.992;2023-07-13T14:58:08;20.40;92.00
3172;DHT22;1597;51.572;6.992;2023-07-13T15:00:37;20.50;73.30
3172;DHT22;1597;51.572;6.992;2023-07-13T15:03:04;20.60;67.30
3172;DHT22;1597;51.572;6.992;2023-07-13T15:05:32;20.80;55.50
3172;DHT22;1597;51.572;6.992;2023-07-13T15:08:01;20.90;45.90
3172;DHT22;1597;51.572;6.992;2023-07-13T15:10:32;21.10;28.70
3172;DHT22;1597;51.572;6.992;2023-07-13T15:13:21;21.10;21.80
3172;DHT22;1597;51.572;6.992;2023-07-13T15:15:53;21.20;22.40
3172;DHT22;1597;51.572;6.992;2023-07-13T15:18:21;21.30;20.30
3172;DHT22;1597;51.572;6.992;2023-07-13T15:20:51;21.30;24.70
3172;DHT22;1597;51.572;6.992;2023-07-13T15:23:22;21.30;31.20
3172;DHT22;1597;51.572;6.992;2023-07-13T15:25:48;21.30;34.60
3172;DHT22;1597;51.572;6.992;2023-07-13T15:28:15;21.30;30.10
3172;DHT22;1597;51.572;6.992;2023-07-13T15:33:27;21.20;29.10
3172;DHT22;1597;51.572;6.992;2023-07-13T15:35:56;21.10;32.10
3172;DHT22;1597;51.572;6.992;2023-07-13T15:38:27;21.10;34.30
3172;DHT22;1597;51.572;6.992;2023-07-13T15:40:56;21.00;38.70
3172;DHT22;1597;51.572;6.992;2023-07-13T15:43:22;21.00;44.80
3172;DHT22;1597;51.572;6.992;2023-07-13T15:45:49;20.40;52.40
3172;DHT22;1597;51.572;6.992;2023-07-13T15:48:19;21.00;54.60
3172;DHT22;1597;51.572;6.992;2023-07-13T15:50:49;20.90;66.40
3172;DHT22;1597;51.572;6.992;2023-07-13T15:53:31;20.70;67.80
3172;DHT22;1597;51.572;6.992;2023-07-13T15:55:59;20.50;72.60
3172;DHT22;1597;51.572;6.992;2023-07-13T15:58:29;20.30;75.70
3172;DHT22;1597;51.572;6.992;2023-07-13T16:00:57;20.30;79.70
3172;DHT22;1597;51.572;6.992;2023-07-13T16:03:26;20.20;83.40
3172;DHT22;1597;51.572;6.992;2023-07-13T16:05:53;20.10;83.70
3172;DHT22;1597;51.572;6.992;2023-07-13T16:08:27;20.10;85.90
3172;DHT22;1597;51.572;6.992;2023-07-13T16:10:56;20.20;85.30
3172;DHT22;1597;51.572;6.992;2023-07-13T16:13:24;20.20;87.20
3172;DHT22;1597;51.572;6.992;2023-07-13T16:15:52;20.40;90.00
3172;DHT22;1597;51.572;6.992;2023-07-13T16:18:21;20.50;82.30
3172;DHT22;1597;51.572;6.992;2023-07-13T16:20:48;20.40;91.80
3172;DHT22;1597;51.572;6.992;2023-07-13T16:23:16;20.40;94.60
3172;DHT22;1597;51.572;6.992;2023-07-13T16:25:43;20.20;98.50
3172;DHT22;1597;51.572;6.992;2023-07-13T16:28:11;20.10;99.90
3172;DHT22;1597;51.572;6.992;2023-07-13T16:30:38;20.00;99.90
3172;DHT22;1597;51.572;6.992;2023-07-13T16:33:05;19.90;99.90
3172;DHT22;1597;51.572;6.992;2023-07-13T16:35:40;19.80;99.90
3172;DHT22;1597;51.572;6.992;2023-07-13T16:40:39;19.90;99.90
3172;DHT22;1597;51.572;6.992;2023-07-13T16:43:11;20.00;99.90
3172;DHT22;1597;51.572;6.992;2023-07-13T16:45:39;20.20;99.90
3172;DHT22;1597;51.572;6.992;2023-07-13T16:48:15;20.30;99.90
3172;DHT22;1597;51.572;6.992;2023-07-13T16:50:52;20.40;99.90
3172;DHT22;1597;51.572;6.992;2023-07-13T16:53:30;20.50;99.90
3172;DHT22;1597;51.572;6.992;2023-07-13T16:56:00;20.70;99.80
3172;DHT22;1597;51.572;6.992;2023-07-13T16:58:33;20.70;99.80
3172;DHT22;1597;51.572;6.992;2023-07-13T17:01:04;20.70;99.90
3172;DHT22;1597;51.572;6.992;2023-07-13T17:03:37;20.70;99.90
3172;DHT22;1597;51.572;6.992;2023-07-13T17:06:30;20.70;99.90